ENNM/OSY METAR and TAF weather

Enter ICAO airport designator
Station Type Date Time Source
ENNM METAR 2018/09/21 19:50 UTC NOAA

ENNM 211950Z 09015KT 9999 -SHRA SCT020 BKN040 10/08 Q0977


Station Type Date Time Source
ENNM Decoded METAR 2018/09/21 19:50 UTC NOAA

Namsos Lufthavn, Norway (ENNM) 64-28N 011-35E 2M
Sep 21, 2018 - 03:50 PM EDT / 2018.09.21 1950 UTC
Wind: from the E (090 degrees) at 17 MPH (15 KT):0
Visibility: greater than 7 mile(s):0
Sky conditions: mostly cloudy
Weather: light rain showers
Temperature: 50 F (10 C)
Dew Point: 46 F (8 C)
Relative Humidity: 87%
Pressure (altimeter): 28.85 in. Hg (0977 hPa)
ob: ENNM 211950Z 09015KT 9999 -SHRA SCT020 BKN040 10/08 Q0977
cycle: 20

Station Type Date Time Source
ENNM TAF UTC NOAA

Error!


Example: see airport list